sensor_id;sensor_type;location;lat;lon;timestamp;P1;durP1;ratioP1;P2;durP2;ratioP2
19016;SDS011;9641;51.494;6.670;2023-04-25T00:02:20;11.37;;;5.83;;
19016;SDS011;9641;51.494;6.670;2023-04-25T00:04:47;15.30;;;4.83;;
19016;SDS011;9641;51.494;6.670;2023-04-25T00:07:14;15.00;;;5.23;;
19016;SDS011;9641;51.494;6.670;2023-04-25T00:09:42;12.73;;;4.97;;
19016;SDS011;9641;51.494;6.670;2023-04-25T00:12:10;22.33;;;5.37;;
19016;SDS011;9641;51.494;6.670;2023-04-25T00:14:37;15.57;;;5.80;;
19016;SDS011;9641;51.494;6.670;2023-04-25T00:17:04;13.80;;;5.07;;
19016;SDS011;9641;51.494;6.670;2023-04-25T00:19:31;14.97;;;5.10;;
19016;SDS011;9641;51.494;6.670;2023-04-25T00:21:59;15.27;;;4.80;;
19016;SDS011;9641;51.494;6.670;2023-04-25T00:24:26;15.00;;;5.20;;
19016;SDS011;9641;51.494;6.670;2023-04-25T00:26:53;16.90;;;5.30;;
19016;SDS011;9641;51.494;6.670;2023-04-25T00:29:22;13.33;;;5.73;;
19016;SDS011;9641;51.494;6.670;2023-04-25T00:31:49;15.03;;;5.67;;
19016;SDS011;9641;51.494;6.670;2023-04-25T00:34:16;16.37;;;5.17;;
19016;SDS011;9641;51.494;6.670;2023-04-25T00:36:43;14.27;;;5.27;;
19016;SDS011;9641;51.494;6.670;2023-04-25T00:39:11;14.97;;;5.23;;
19016;SDS011;9641;51.494;6.670;2023-04-25T00:41:39;15.27;;;5.50;;
19016;SDS011;9641;51.494;6.670;2023-04-25T00:44:08;15.93;;;5.57;;
19016;SDS011;9641;51.494;6.670;2023-04-25T00:46:37;10.50;;;5.07;;
19016;SDS011;9641;51.494;6.670;2023-04-25T00:49:05;17.00;;;5.57;;
19016;SDS011;9641;51.494;6.670;2023-04-25T00:51:32;14.20;;;5.07;;
19016;SDS011;9641;51.494;6.670;2023-04-25T00:53:59;11.60;;;5.40;;
19016;SDS011;9641;51.494;6.670;2023-04-25T00:56:27;13.13;;;5.00;;
19016;SDS011;9641;51.494;6.670;2023-04-25T00:58:54;10.57;;;5.13;;
19016;SDS011;9641;51.494;6.670;2023-04-25T01:01:22;11.37;;;5.20;;
19016;SDS011;9641;51.494;6.670;2023-04-25T01:03:51;11.97;;;5.87;;
19016;SDS011;9641;51.494;6.670;2023-04-25T01:06:20;9.17;;;5.23;;
19016;SDS011;9641;51.494;6.670;2023-04-25T01:08:48;13.70;;;6.53;;
19016;SDS011;9641;51.494;6.670;2023-04-25T01:11:16;14.40;;;5.73;;
19016;SDS011;9641;51.494;6.670;2023-04-25T01:13:43;14.87;;;6.00;;
19016;SDS011;9641;51.494;6.670;2023-04-25T01:16:10;12.20;;;5.10;;
19016;SDS011;9641;51.494;6.670;2023-04-25T01:18:38;12.73;;;5.20;;
19016;SDS011;9641;51.494;6.670;2023-04-25T01:21:08;11.80;;;5.50;;
19016;SDS011;9641;51.494;6.670;2023-04-25T01:23:36;14.03;;;5.47;;
19016;SDS011;9641;51.494;6.670;2023-04-25T01:26:04;16.17;;;5.07;;
19016;SDS011;9641;51.494;6.670;2023-04-25T01:28:32;11.47;;;4.57;;
19016;SDS011;9641;51.494;6.670;2023-04-25T01:31:01;9.57;;;5.17;;
19016;SDS011;9641;51.494;6.670;2023-04-25T01:33:28;13.20;;;5.00;;
19016;SDS011;9641;51.494;6.670;2023-04-25T01:35:55;17.40;;;6.80;;
19016;SDS011;9641;51.494;6.670;2023-04-25T01:38:24;11.30;;;5.40;;
19016;SDS011;9641;51.494;6.670;2023-04-25T01:40:53;11.47;;;5.40;;
19016;SDS011;9641;51.494;6.670;2023-04-25T01:43:21;14.07;;;6.10;;
19016;SDS011;9641;51.494;6.670;2023-04-25T01:45:48;12.23;;;5.27;;
19016;SDS011;9641;51.494;6.670;2023-04-25T01:48:17;14.73;;;5.73;;
19016;SDS011;9641;51.494;6.670;2023-04-25T01:50:45;16.93;;;5.90;;
19016;SDS011;9641;51.494;6.670;2023-04-25T01:53:12;18.47;;;5.57;;
19016;SDS011;9641;51.494;6.670;2023-04-25T01:55:43;11.33;;;5.00;;
19016;SDS011;9641;51.494;6.670;2023-04-25T01:58:14;13.87;;;5.90;;
19016;SDS011;9641;51.494;6.670;2023-04-25T02:01:00;12.40;;;4.93;;
19016;SDS011;9641;51.494;6.670;2023-04-25T02:03:34;14.50;;;5.47;;
19016;SDS011;9641;51.494;6.670;2023-04-25T02:06:04;12.13;;;5.23;;
19016;SDS011;9641;51.494;6.670;2023-04-25T02:08:35;12.47;;;5.00;;
19016;SDS011;9641;51.494;6.670;2023-04-25T02:11:04;15.27;;;5.43;;
19016;SDS011;9641;51.494;6.670;2023-04-25T02:13:38;17.87;;;5.90;;
19016;SDS011;9641;51.494;6.670;2023-04-25T02:16:23;17.03;;;5.37;;
19016;SDS011;9641;51.494;6.670;2023-04-25T02:18:50;15.87;;;5.27;;
19016;SDS011;9641;51.494;6.670;2023-04-25T02:21:18;14.97;;;5.47;;
19016;SDS011;9641;51.494;6.670;2023-04-25T02:23:45;15.83;;;5.23;;
19016;SDS011;9641;51.494;6.670;2023-04-25T02:26:15;11.47;;;5.03;;
19016;SDS011;9641;51.494;6.670;2023-04-25T02:28:42;13.63;;;5.97;;
19016;SDS011;9641;51.494;6.670;2023-04-25T02:31:09;15.40;;;5.07;;
19016;SDS011;9641;51.494;6.670;2023-04-25T02:33:36;10.57;;;5.93;;
19016;SDS011;9641;51.494;6.670;2023-04-25T02:36:05;11.37;;;5.03;;
19016;SDS011;9641;51.494;6.670;2023-04-25T02:38:32;13.63;;;5.20;;
19016;SDS011;9641;51.494;6.670;2023-04-25T02:41:00;15.57;;;5.43;;
19016;SDS011;9641;51.494;6.670;2023-04-25T02:43:28;15.47;;;4.93;;
19016;SDS011;9641;51.494;6.670;2023-04-25T02:45:55;14.70;;;5.63;;
19016;SDS011;9641;51.494;6.670;2023-04-25T02:48:22;11.00;;;5.20;;
19016;SDS011;9641;51.494;6.670;2023-04-25T02:50:49;13.53;;;5.67;;
19016;SDS011;9641;51.494;6.670;2023-04-25T02:53:16;15.43;;;4.87;;
19016;SDS011;9641;51.494;6.670;2023-04-25T02:55:48;12.33;;;5.80;;
19016;SDS011;9641;51.494;6.670;2023-04-25T02:58:15;9.93;;;5.63;;
19016;SDS011;9641;51.494;6.670;2023-04-25T03:00:49;16.90;;;5.03;;
19016;SDS011;9641;51.494;6.670;2023-04-25T03:03:16;12.50;;;5.30;;
19016;SDS011;9641;51.494;6.670;2023-04-25T03:05:46;13.90;;;5.90;;
19016;SDS011;9641;51.494;6.670;2023-04-25T03:08:17;16.20;;;5.43;;
19016;SDS011;9641;51.494;6.670;2023-04-25T03:10:44;19.93;;;6.00;;
19016;SDS011;9641;51.494;6.670;2023-04-25T03:13:14;12.60;;;5.50;;
19016;SDS011;9641;51.494;6.670;2023-04-25T03:15:42;16.07;;;5.73;;
19016;SDS011;9641;51.494;6.670;2023-04-25T03:18:11;12.73;;;5.07;;
19016;SDS011;9641;51.494;6.670;2023-04-25T03:20:39;15.03;;;5.77;;
19016;SDS011;9641;51.494;6.670;2023-04-25T03:23:07;14.80;;;5.87;;
19016;SDS011;9641;51.494;6.670;2023-04-25T03:25:36;19.90;;;6.03;;
19016;SDS011;9641;51.494;6.670;2023-04-25T03:28:03;14.50;;;5.30;;
19016;SDS011;9641;51.494;6.670;2023-04-25T03:30:31;15.63;;;5.80;;
19016;SDS011;9641;51.494;6.670;2023-04-25T03:32:58;15.53;;;5.40;;
19016;SDS011;9641;51.494;6.670;2023-04-25T03:35:27;13.30;;;5.10;;
19016;SDS011;9641;51.494;6.670;2023-04-25T03:37:54;18.97;;;6.10;;
19016;SDS011;9641;51.494;6.670;2023-04-25T03:40:27;11.33;;;5.57;;
19016;SDS011;9641;51.494;6.670;2023-04-25T03:43:16;13.17;;;5.00;;
19016;SDS011;9641;51.494;6.670;2023-04-25T03:45:50;16.80;;;5.50;;
19016;SDS011;9641;51.494;6.670;2023-04-25T03:48:20;13.03;;;5.20;;
19016;SDS011;9641;51.494;6.670;2023-04-25T03:50:51;9.13;;;4.87;;
19016;SDS011;9641;51.494;6.670;2023-04-25T03:53:19;20.10;;;5.20;;
19016;SDS011;9641;51.494;6.670;2023-04-25T03:56:19;18.47;;;5.80;;
19016;SDS011;9641;51.494;6.670;2023-04-25T03:58:53;15.13;;;5.43;;
19016;SDS011;9641;51.494;6.670;2023-04-25T04:01:22;13.83;;;5.00;;
19016;SDS011;9641;51.494;6.670;2023-04-25T04:03:50;16.97;;;4.83;;
19016;SDS011;9641;51.494;6.670;2023-04-25T04:06:18;17.20;;;5.83;;
19016;SDS011;9641;51.494;6.670;2023-04-25T04:08:50;18.33;;;6.00;;
19016;SDS011;9641;51.494;6.670;2023-04-25T04:11:17;19.70;;;6.53;;
19016;SDS011;9641;51.494;6.670;2023-04-25T04:13:44;16.50;;;5.00;;
19016;SDS011;9641;51.494;6.670;2023-04-25T04:16:11;18.40;;;6.20;;
19016;SDS011;9641;51.494;6.670;2023-04-25T04:18:38;15.60;;;5.50;;
19016;SDS011;9641;51.494;6.670;2023-04-25T04:21:05;18.70;;;5.67;;
19016;SDS011;9641;51.494;6.670;2023-04-25T04:23:36;18.97;;;5.93;;
19016;SDS011;9641;51.494;6.670;2023-04-25T04:26:03;17.60;;;6.10;;
19016;SDS011;9641;51.494;6.670;2023-04-25T04:29:09;17.60;;;6.00;;
19016;SDS011;9641;51.494;6.670;2023-04-25T04:31:54;15.00;;;5.73;;
19016;SDS011;9641;51.494;6.670;2023-04-25T04:34:23;22.03;;;6.73;;
19016;SDS011;9641;51.494;6.670;2023-04-25T04:36:51;24.07;;;6.93;;
19016;SDS011;9641;51.494;6.670;2023-04-25T04:39:20;21.53;;;6.30;;
19016;SDS011;9641;51.494;6.670;2023-04-25T04:42:07;20.10;;;5.77;;
19016;SDS011;9641;51.494;6.670;2023-04-25T04:45:03;13.97;;;5.30;;
19016;SDS011;9641;51.494;6.670;2023-04-25T04:48:05;22.90;;;7.57;;
19016;SDS011;9641;51.494;6.670;2023-04-25T04:50:46;17.07;;;6.03;;
19016;SDS011;9641;51.494;6.670;2023-04-25T04:53:24;24.77;;;6.73;;
19016;SDS011;9641;51.494;6.670;2023-04-25T04:56:11;18.73;;;5.90;;
19016;SDS011;9641;51.494;6.670;2023-04-25T04:59:10;18.37;;;6.40;;
19016;SDS011;9641;51.494;6.670;2023-04-25T05:01:44;18.90;;;6.53;;
19016;SDS011;9641;51.494;6.670;2023-04-25T05:04:14;17.87;;;5.80;;
19016;SDS011;9641;51.494;6.670;2023-04-25T05:06:54;22.00;;;6.10;;
19016;SDS011;9641;51.494;6.670;2023-04-25T05:09:48;21.63;;;6.00;;
19016;SDS011;9641;51.494;6.670;2023-04-25T05:12:34;15.33;;;5.87;;
19016;SDS011;9641;51.494;6.670;2023-04-25T05:15:25;27.37;;;6.53;;
19016;SDS011;9641;51.494;6.670;2023-04-25T05:18:06;16.43;;;6.07;;
19016;SDS011;9641;51.494;6.670;2023-04-25T05:20:42;19.10;;;5.77;;
19016;SDS011;9641;51.494;6.670;2023-04-25T05:23:24;19.90;;;6.20;;
19016;SDS011;9641;51.494;6.670;2023-04-25T05:26:09;15.53;;;6.27;;
19016;SDS011;9641;51.494;6.670;2023-04-25T05:28:53;13.20;;;5.60;;
19016;SDS011;9641;51.494;6.670;2023-04-25T05:31:38;23.77;;;6.17;;
19016;SDS011;9641;51.494;6.670;2023-04-25T05:34:12;20.80;;;6.10;;
19016;SDS011;9641;51.494;6.670;2023-04-25T05:36:52;15.43;;;5.70;;
19016;SDS011;9641;51.494;6.670;2023-04-25T05:39:19;13.93;;;5.30;;
19016;SDS011;9641;51.494;6.670;2023-04-25T05:42:03;18.63;;;6.07;;
19016;SDS011;9641;51.494;6.670;2023-04-25T05:44:46;26.93;;;5.90;;
19016;SDS011;9641;51.494;6.670;2023-04-25T05:47:36;13.23;;;5.90;;
19016;SDS011;9641;51.494;6.670;2023-04-25T05:50:13;16.23;;;5.53;;
19016;SDS011;9641;51.494;6.670;2023-04-25T05:52:53;15.00;;;4.87;;
19016;SDS011;9641;51.494;6.670;2023-04-25T05:55:27;12.97;;;5.77;;
19016;SDS011;9641;51.494;6.670;2023-04-25T05:57:56;14.07;;;5.40;;
19016;SDS011;9641;51.494;6.670;2023-04-25T06:00:24;15.07;;;4.87;;
19016;SDS011;9641;51.494;6.670;2023-04-25T06:02:51;13.80;;;5.00;;
19016;SDS011;9641;51.494;6.670;2023-04-25T06:05:18;17.17;;;5.43;;
19016;SDS011;9641;51.494;6.670;2023-04-25T06:07:46;25.07;;;5.67;;
19016;SDS011;9641;51.494;6.670;2023-04-25T06:10:13;21.80;;;4.57;;
19016;SDS011;9641;51.494;6.670;2023-04-25T06:12:41;15.30;;;5.33;;
19016;SDS011;9641;51.494;6.670;2023-04-25T06:15:09;16.57;;;5.33;;
19016;SDS011;9641;51.494;6.670;2023-04-25T06:17:40;17.27;;;5.20;;
19016;SDS011;9641;51.494;6.670;2023-04-25T06:20:08;13.73;;;5.10;;
19016;SDS011;9641;51.494;6.670;2023-04-25T06:22:36;17.90;;;4.70;;
19016;SDS011;9641;51.494;6.670;2023-04-25T06:25:03;13.17;;;4.43;;
19016;SDS011;9641;51.494;6.670;2023-04-25T06:27:32;12.00;;;4.63;;
19016;SDS011;9641;51.494;6.670;2023-04-25T06:30:00;14.03;;;4.37;;
19016;SDS011;9641;51.494;6.670;2023-04-25T06:32:30;17.03;;;4.10;;
19016;SDS011;9641;51.494;6.670;2023-04-25T06:35:02;17.03;;;4.67;;
19016;SDS011;9641;51.494;6.670;2023-04-25T06:37:29;25.57;;;4.83;;
19016;SDS011;9641;51.494;6.670;2023-04-25T06:39:57;17.40;;;5.63;;
19016;SDS011;9641;51.494;6.670;2023-04-25T06:42:24;12.33;;;4.07;;
19016;SDS011;9641;51.494;6.670;2023-04-25T06:44:56;22.07;;;4.60;;
19016;SDS011;9641;51.494;6.670;2023-04-25T06:47:24;14.70;;;4.90;;
19016;SDS011;9641;51.494;6.670;2023-04-25T06:49:52;13.57;;;4.77;;
19016;SDS011;9641;51.494;6.670;2023-04-25T06:52:21;15.70;;;4.80;;
19016;SDS011;9641;51.494;6.670;2023-04-25T06:54:51;18.33;;;4.87;;
19016;SDS011;9641;51.494;6.670;2023-04-25T06:57:33;23.50;;;5.13;;
19016;SDS011;9641;51.494;6.670;2023-04-25T07:00:20;13.80;;;5.00;;
19016;SDS011;9641;51.494;6.670;2023-04-25T07:02:50;16.53;;;4.63;;
19016;SDS011;9641;51.494;6.670;2023-04-25T07:05:18;15.57;;;4.90;;
19016;SDS011;9641;51.494;6.670;2023-04-25T07:07:47;17.00;;;5.60;;
19016;SDS011;9641;51.494;6.670;2023-04-25T07:10:14;11.33;;;4.47;;
19016;SDS011;9641;51.494;6.670;2023-04-25T07:12:42;16.20;;;4.93;;
19016;SDS011;9641;51.494;6.670;2023-04-25T07:15:11;15.17;;;4.80;;
19016;SDS011;9641;51.494;6.670;2023-04-25T07:17:42;15.57;;;3.87;;
19016;SDS011;9641;51.494;6.670;2023-04-25T07:20:09;7.80;;;3.47;;
19016;SDS011;9641;51.494;6.670;2023-04-25T07:22:39;10.73;;;3.63;;
19016;SDS011;9641;51.494;6.670;2023-04-25T07:25:09;14.87;;;4.10;;
19016;SDS011;9641;51.494;6.670;2023-04-25T07:27:37;17.03;;;4.20;;
19016;SDS011;9641;51.494;6.670;2023-04-25T07:30:12;9.40;;;3.90;;
19016;SDS011;9641;51.494;6.670;2023-04-25T07:32:39;12.67;;;3.60;;
19016;SDS011;9641;51.494;6.670;2023-04-25T07:35:07;12.93;;;4.40;;
19016;SDS011;9641;51.494;6.670;2023-04-25T07:37:35;14.63;;;3.50;;
19016;SDS011;9641;51.494;6.670;2023-04-25T07:40:10;11.50;;;3.33;;
19016;SDS011;9641;51.494;6.670;2023-04-25T07:42:44;10.53;;;3.00;;
19016;SDS011;9641;51.494;6.670;2023-04-25T07:45:15;10.37;;;3.07;;
19016;SDS011;9641;51.494;6.670;2023-04-25T07:47:43;11.43;;;3.87;;
19016;SDS011;9641;51.494;6.670;2023-04-25T07:50:11;8.80;;;3.10;;
19016;SDS011;9641;51.494;6.670;2023-04-25T07:52:38;16.97;;;3.13;;
19016;SDS011;9641;51.494;6.670;2023-04-25T07:55:18;12.03;;;3.07;;
19016;SDS011;9641;51.494;6.670;2023-04-25T07:58:00;14.30;;;3.23;;
19016;SDS011;9641;51.494;6.670;2023-04-25T08:00:29;16.07;;;3.27;;
19016;SDS011;9641;51.494;6.670;2023-04-25T08:03:16;15.27;;;3.47;;
19016;SDS011;9641;51.494;6.670;2023-04-25T08:05:43;15.97;;;3.40;;
19016;SDS011;9641;51.494;6.670;2023-04-25T08:08:12;9.47;;;3.13;;
19016;SDS011;9641;51.494;6.670;2023-04-25T08:10:41;13.97;;;3.10;;
19016;SDS011;9641;51.494;6.670;2023-04-25T08:13:08;10.87;;;2.63;;
19016;SDS011;9641;51.494;6.670;2023-04-25T08:15:36;12.77;;;3.43;;
19016;SDS011;9641;51.494;6.670;2023-04-25T08:18:03;11.83;;;2.97;;
19016;SDS011;9641;51.494;6.670;2023-04-25T08:20:31;11.00;;;3.03;;
19016;SDS011;9641;51.494;6.670;2023-04-25T08:23:00;7.77;;;2.90;;
19016;SDS011;9641;51.494;6.670;2023-04-25T08:25:46;9.23;;;3.43;;
19016;SDS011;9641;51.494;6.670;2023-04-25T08:28:16;11.77;;;3.17;;
19016;SDS011;9641;51.494;6.670;2023-04-25T08:30:44;8.77;;;2.63;;
19016;SDS011;9641;51.494;6.670;2023-04-25T08:33:13;9.03;;;2.30;;
19016;SDS011;9641;51.494;6.670;2023-04-25T08:35:58;9.83;;;2.43;;
19016;SDS011;9641;51.494;6.670;2023-04-25T08:38:26;8.03;;;2.80;;
19016;SDS011;9641;51.494;6.670;2023-04-25T08:40:55;9.17;;;2.70;;
19016;SDS011;9641;51.494;6.670;2023-04-25T08:43:23;8.37;;;2.63;;
19016;SDS011;9641;51.494;6.670;2023-04-25T08:45:51;7.60;;;2.40;;
19016;SDS011;9641;51.494;6.670;2023-04-25T08:48:32;8.37;;;2.53;;
19016;SDS011;9641;51.494;6.670;2023-04-25T08:51:01;10.87;;;2.33;;
19016;SDS011;9641;51.494;6.670;2023-04-25T08:53:29;9.63;;;2.27;;
19016;SDS011;9641;51.494;6.670;2023-04-25T08:56:01;9.67;;;2.37;;
19016;SDS011;9641;51.494;6.670;2023-04-25T08:58:33;10.97;;;2.20;;
19016;SDS011;9641;51.494;6.670;2023-04-25T09:01:00;10.07;;;2.40;;
19016;SDS011;9641;51.494;6.670;2023-04-25T09:03:32;5.17;;;2.30;;
19016;SDS011;9641;51.494;6.670;2023-04-25T09:05:59;12.90;;;2.63;;
19016;SDS011;9641;51.494;6.670;2023-04-25T09:08:27;9.67;;;2.50;;
19016;SDS011;9641;51.494;6.670;2023-04-25T09:10:55;6.07;;;1.93;;
19016;SDS011;9641;51.494;6.670;2023-04-25T09:13:27;7.40;;;1.97;;
19016;SDS011;9641;51.494;6.670;2023-04-25T09:16:34;10.47;;;1.80;;
19016;SDS011;9641;51.494;6.670;2023-04-25T09:19:20;7.40;;;2.00;;
19016;SDS011;9641;51.494;6.670;2023-04-25T09:21:52;7.27;;;2.10;;
19016;SDS011;9641;51.494;6.670;2023-04-25T09:24:28;10.60;;;1.70;;
19016;SDS011;9641;51.494;6.670;2023-04-25T09:27:02;5.60;;;1.60;;
19016;SDS011;9641;51.494;6.670;2023-04-25T09:29:33;6.13;;;1.70;;
19016;SDS011;9641;51.494;6.670;2023-04-25T09:32:16;6.73;;;1.97;;
19016;SDS011;9641;51.494;6.670;2023-04-25T09:34:46;7.43;;;1.97;;
19016;SDS011;9641;51.494;6.670;2023-04-25T09:37:18;7.97;;;1.97;;
19016;SDS011;9641;51.494;6.670;2023-04-25T09:40:06;7.33;;;2.23;;
19016;SDS011;9641;51.494;6.670;2023-04-25T09:42:48;6.20;;;1.80;;
19016;SDS011;9641;51.494;6.670;2023-04-25T09:45:17;4.00;;;1.63;;
19016;SDS011;9641;51.494;6.670;2023-04-25T09:47:44;34.13;;;12.50;;
19016;SDS011;9641;51.494;6.670;2023-04-25T09:50:17;4.53;;;2.10;;
19016;SDS011;9641;51.494;6.670;2023-04-25T09:53:01;10.20;;;2.40;;
19016;SDS011;9641;51.494;6.670;2023-04-25T09:55:37;4.63;;;1.70;;
19016;SDS011;9641;51.494;6.670;2023-04-25T09:58:06;6.23;;;2.23;;
19016;SDS011;9641;51.494;6.670;2023-04-25T10:00:37;7.73;;;1.63;;
19016;SDS011;9641;51.494;6.670;2023-04-25T10:03:18;4.23;;;2.00;;
19016;SDS011;9641;51.494;6.670;2023-04-25T10:06:24;7.57;;;2.20;;
19016;SDS011;9641;51.494;6.670;2023-04-25T10:08:53;7.63;;;2.00;;
19016;SDS011;9641;51.494;6.670;2023-04-25T10:11:21;7.33;;;1.70;;
19016;SDS011;9641;51.494;6.670;2023-04-25T10:13:52;5.77;;;1.80;;
19016;SDS011;9641;51.494;6.670;2023-04-25T10:16:21;6.10;;;1.70;;
19016;SDS011;9641;51.494;6.670;2023-04-25T10:18:48;5.70;;;1.73;;
19016;SDS011;9641;51.494;6.670;2023-04-25T10:21:16;5.80;;;1.20;;
19016;SDS011;9641;51.494;6.670;2023-04-25T10:23:45;3.03;;;1.53;;
19016;SDS011;9641;51.494;6.670;2023-04-25T10:26:12;6.27;;;1.93;;
19016;SDS011;9641;51.494;6.670;2023-04-25T10:28:55;5.70;;;1.70;;
19016;SDS011;9641;51.494;6.670;2023-04-25T10:31:24;5.67;;;2.33;;
19016;SDS011;9641;51.494;6.670;2023-04-25T10:33:51;8.17;;;2.60;;
19016;SDS011;9641;51.494;6.670;2023-04-25T10:36:21;8.83;;;1.90;;
19016;SDS011;9641;51.494;6.670;2023-04-25T10:38:50;4.93;;;1.70;;
19016;SDS011;9641;51.494;6.670;2023-04-25T10:41:18;7.27;;;1.70;;
19016;SDS011;9641;51.494;6.670;2023-04-25T10:43:46;4.83;;;1.90;;
19016;SDS011;9641;51.494;6.670;2023-04-25T10:46:17;3.17;;;1.77;;
19016;SDS011;9641;51.494;6.670;2023-04-25T10:48:50;10.73;;;2.27;;
19016;SDS011;9641;51.494;6.670;2023-04-25T10:51:19;4.70;;;1.67;;
19016;SDS011;9641;51.494;6.670;2023-04-25T10:53:56;5.23;;;2.23;;
19016;SDS011;9641;51.494;6.670;2023-04-25T10:56:25;3.30;;;2.00;;
19016;SDS011;9641;51.494;6.670;2023-04-25T10:59:03;7.73;;;2.90;;
19016;SDS011;9641;51.494;6.670;2023-04-25T11:01:36;7.03;;;2.87;;
19016;SDS011;9641;51.494;6.670;2023-04-25T11:04:06;7.13;;;2.60;;
19016;SDS011;9641;51.494;6.670;2023-04-25T11:06:48;8.10;;;3.33;;
19016;SDS011;9641;51.494;6.670;2023-04-25T11:09:24;9.63;;;4.20;;
19016;SDS011;9641;51.494;6.670;2023-04-25T11:11:53;11.43;;;3.60;;
19016;SDS011;9641;51.494;6.670;2023-04-25T11:14:24;10.07;;;4.53;;
19016;SDS011;9641;51.494;6.670;2023-04-25T11:17:06;5.57;;;2.27;;
19016;SDS011;9641;51.494;6.670;2023-04-25T11:19:35;6.47;;;1.90;;
19016;SDS011;9641;51.494;6.670;2023-04-25T11:22:03;2.77;;;1.63;;
19016;SDS011;9641;51.494;6.670;2023-04-25T11:24:31;2.97;;;1.90;;
19016;SDS011;9641;51.494;6.670;2023-04-25T11:27:02;5.30;;;2.67;;
19016;SDS011;9641;51.494;6.670;2023-04-25T11:29:31;8.03;;;2.13;;
19016;SDS011;9641;51.494;6.670;2023-04-25T11:31:59;7.70;;;1.90;;
19016;SDS011;9641;51.494;6.670;2023-04-25T11:34:27;5.77;;;2.13;;
19016;SDS011;9641;51.494;6.670;2023-04-25T11:36:59;8.63;;;2.30;;
19016;SDS011;9641;51.494;6.670;2023-04-25T11:39:27;11.53;;;2.50;;
19016;SDS011;9641;51.494;6.670;2023-04-25T11:41:54;9.33;;;2.67;;
19016;SDS011;9641;51.494;6.670;2023-04-25T11:44:22;20.67;;;4.20;;
19016;SDS011;9641;51.494;6.670;2023-04-25T11:46:49;21.43;;;4.47;;
19016;SDS011;9641;51.494;6.670;2023-04-25T11:49:16;13.60;;;4.10;;
19016;SDS011;9641;51.494;6.670;2023-04-25T11:51:44;8.00;;;3.30;;
19016;SDS011;9641;51.494;6.670;2023-04-25T11:54:13;7.07;;;2.30;;
19016;SDS011;9641;51.494;6.670;2023-04-25T11:56:41;7.83;;;2.00;;
19016;SDS011;9641;51.494;6.670;2023-04-25T11:59:08;6.47;;;1.90;;
19016;SDS011;9641;51.494;6.670;2023-04-25T12:01:38;3.67;;;1.80;;
19016;SDS011;9641;51.494;6.670;2023-04-25T12:04:10;6.03;;;2.50;;
19016;SDS011;9641;51.494;6.670;2023-04-25T12:06:38;5.80;;;1.70;;
19016;SDS011;9641;51.494;6.670;2023-04-25T12:09:07;3.07;;;1.60;;
19016;SDS011;9641;51.494;6.670;2023-04-25T12:11:42;4.03;;;1.40;;
19016;SDS011;9641;51.494;6.670;2023-04-25T12:14:10;4.87;;;1.40;;
19016;SDS011;9641;51.494;6.670;2023-04-25T12:16:41;4.30;;;1.57;;
19016;SDS011;9641;51.494;6.670;2023-04-25T12:19:08;3.50;;;1.40;;
19016;SDS011;9641;51.494;6.670;2023-04-25T12:21:36;4.03;;;1.47;;
19016;SDS011;9641;51.494;6.670;2023-04-25T12:24:10;3.37;;;1.30;;
19016;SDS011;9641;51.494;6.670;2023-04-25T12:26:47;5.73;;;1.50;;
19016;SDS011;9641;51.494;6.670;2023-04-25T12:29:18;2.33;;;1.20;;
19016;SDS011;9641;51.494;6.670;2023-04-25T12:31:47;3.60;;;1.30;;
19016;SDS011;9641;51.494;6.670;2023-04-25T12:34:15;2.30;;;1.30;;
19016;SDS011;9641;51.494;6.670;2023-04-25T12:36:42;4.50;;;1.40;;
19016;SDS011;9641;51.494;6.670;2023-04-25T12:39:15;4.33;;;1.70;;
19016;SDS011;9641;51.494;6.670;2023-04-25T12:41:45;3.67;;;1.50;;
19016;SDS011;9641;51.494;6.670;2023-04-25T12:44:14;5.47;;;1.50;;
19016;SDS011;9641;51.494;6.670;2023-04-25T12:46:42;5.00;;;1.63;;
19016;SDS011;9641;51.494;6.670;2023-04-25T12:49:12;4.83;;;1.43;;
19016;SDS011;9641;51.494;6.670;2023-04-25T12:51:40;4.60;;;1.60;;
19016;SDS011;9641;51.494;6.670;2023-04-25T12:54:09;4.67;;;1.30;;
19016;SDS011;9641;51.494;6.670;2023-04-25T12:56:36;6.27;;;1.60;;
19016;SDS011;9641;51.494;6.670;2023-04-25T12:59:04;4.33;;;1.47;;
19016;SDS011;9641;51.494;6.670;2023-04-25T13:01:31;5.77;;;1.63;;
19016;SDS011;9641;51.494;6.670;2023-04-25T13:03:59;11.40;;;1.80;;
19016;SDS011;9641;51.494;6.670;2023-04-25T13:06:26;5.27;;;1.63;;
19016;SDS011;9641;51.494;6.670;2023-04-25T13:08:55;5.33;;;1.80;;
19016;SDS011;9641;51.494;6.670;2023-04-25T13:11:22;5.83;;;1.50;;
19016;SDS011;9641;51.494;6.670;2023-04-25T13:13:49;3.67;;;1.60;;
19016;SDS011;9641;51.494;6.670;2023-04-25T13:16:20;2.10;;;1.27;;
19016;SDS011;9641;51.494;6.670;2023-04-25T13:18:47;8.43;;;1.20;;
19016;SDS011;9641;51.494;6.670;2023-04-25T13:21:15;6.45;;;2.13;;
19016;SDS011;9641;51.494;6.670;2023-04-25T13:23:42;3.83;;;1.30;;
19016;SDS011;9641;51.494;6.670;2023-04-25T13:26:11;3.20;;;1.50;;
19016;SDS011;9641;51.494;6.670;2023-04-25T13:28:38;4.75;;;1.35;;
19016;SDS011;9641;51.494;6.670;2023-04-25T13:31:06;5.55;;;1.60;;
19016;SDS011;9641;51.494;6.670;2023-04-25T13:33:34;2.93;;;1.10;;
19016;SDS011;9641;51.494;6.670;2023-04-25T13:36:01;4.50;;;1.60;;
19016;SDS011;9641;51.494;6.670;2023-04-25T13:38:28;5.67;;;1.40;;
19016;SDS011;9641;51.494;6.670;2023-04-25T13:40:56;2.53;;;1.10;;
19016;SDS011;9641;51.494;6.670;2023-04-25T13:43:23;3.97;;;1.33;;
19016;SDS011;9641;51.494;6.670;2023-04-25T13:45:50;3.23;;;1.20;;
19016;SDS011;9641;51.494;6.670;2023-04-25T13:48:17;6.83;;;1.40;;
19016;SDS011;9641;51.494;6.670;2023-04-25T13:50:47;5.17;;;1.23;;
19016;SDS011;9641;51.494;6.670;2023-04-25T13:53:16;6.03;;;1.20;;
19016;SDS011;9641;51.494;6.670;2023-04-25T13:55:43;2.40;;;1.10;;
19016;SDS011;9641;51.494;6.670;2023-04-25T13:58:10;3.47;;;1.13;;
19016;SDS011;9641;51.494;6.670;2023-04-25T14:00:38;3.73;;;1.27;;
19016;SDS011;9641;51.494;6.670;2023-04-25T14:03:07;2.23;;;1.00;;
19016;SDS011;9641;51.494;6.670;2023-04-25T14:05:34;3.23;;;1.20;;
19016;SDS011;9641;51.494;6.670;2023-04-25T14:08:05;6.17;;;1.23;;
19016;SDS011;9641;51.494;6.670;2023-04-25T14:10:33;3.20;;;1.10;;
19016;SDS011;9641;51.494;6.670;2023-04-25T14:13:01;1.83;;;0.77;;
19016;SDS011;9641;51.494;6.670;2023-04-25T14:15:29;2.83;;;1.20;;
19016;SDS011;9641;51.494;6.670;2023-04-25T14:17:57;3.03;;;1.10;;
19016;SDS011;9641;51.494;6.670;2023-04-25T14:20:24;2.13;;;1.10;;
19016;SDS011;9641;51.494;6.670;2023-04-25T14:22:51;5.27;;;1.80;;
19016;SDS011;9641;51.494;6.670;2023-04-25T14:25:21;2.47;;;1.13;;
19016;SDS011;9641;51.494;6.670;2023-04-25T14:27:48;3.07;;;1.30;;
19016;SDS011;9641;51.494;6.670;2023-04-25T14:30:16;8.43;;;1.50;;
19016;SDS011;9641;51.494;6.670;2023-04-25T14:32:43;4.63;;;1.63;;
19016;SDS011;9641;51.494;6.670;2023-04-25T14:35:10;4.40;;;1.70;;
19016;SDS011;9641;51.494;6.670;2023-04-25T14:37:37;4.93;;;1.63;;
19016;SDS011;9641;51.494;6.670;2023-04-25T14:40:05;2.80;;;1.50;;
19016;SDS011;9641;51.494;6.670;2023-04-25T14:42:35;5.30;;;1.33;;
19016;SDS011;9641;51.494;6.670;2023-04-25T14:45:03;7.40;;;1.60;;
19016;SDS011;9641;51.494;6.670;2023-04-25T14:47:31;3.60;;;1.20;;
19016;SDS011;9641;51.494;6.670;2023-04-25T14:49:58;4.00;;;1.37;;
19016;SDS011;9641;51.494;6.670;2023-04-25T14:52:26;2.83;;;1.20;;
19016;SDS011;9641;51.494;6.670;2023-04-25T14:54:53;3.53;;;1.50;;
19016;SDS011;9641;51.494;6.670;2023-04-25T14:57:20;5.40;;;1.20;;
19016;SDS011;9641;51.494;6.670;2023-04-25T14:59:49;3.87;;;1.40;;
19016;SDS011;9641;51.494;6.670;2023-04-25T15:02:16;4.33;;;1.40;;
19016;SDS011;9641;51.494;6.670;2023-04-25T15:04:43;5.80;;;1.43;;
19016;SDS011;9641;51.494;6.670;2023-04-25T15:07:10;5.17;;;1.27;;
19016;SDS011;9641;51.494;6.670;2023-04-25T15:09:38;3.73;;;1.10;;
19016;SDS011;9641;51.494;6.670;2023-04-25T15:12:05;2.57;;;1.10;;
19016;SDS011;9641;51.494;6.670;2023-04-25T15:14:32;5.27;;;1.73;;
19016;SDS011;9641;51.494;6.670;2023-04-25T15:17:01;3.33;;;1.33;;